sensor_id;sensor_type;location;lat;lon;timestamp;temperature;humidity
10911;DHT22;5508;49.150;11.030;2022-09-20T00:00:37;8.50;99.90
10911;DHT22;5508;49.150;11.030;2022-09-20T00:03:40;8.60;99.90
10911;DHT22;5508;49.150;11.030;2022-09-20T00:06:41;8.60;99.90
10911;DHT22;5508;49.150;11.030;2022-09-20T00:09:41;8.60;99.90
10911;DHT22;5508;49.150;11.030;2022-09-20T00:12:42;8.60;99.90
10911;DHT22;5508;49.150;11.030;2022-09-20T00:15:44;8.60;99.90
10911;DHT22;5508;49.150;11.030;2022-09-20T00:18:49;8.60;99.90
10911;DHT22;5508;49.150;11.030;2022-09-20T00:21:50;8.60;99.90
10911;DHT22;5508;49.150;11.030;2022-09-20T00:24:50;8.60;99.90
10911;DHT22;5508;49.150;11.030;2022-09-20T00:27:51;8.60;99.90
10911;DHT22;5508;49.150;11.030;2022-09-20T00:30:53;8.50;99.90
10911;DHT22;5508;49.150;11.030;2022-09-20T00:33:54;8.50;99.90
10911;DHT22;5508;49.150;11.030;2022-09-20T00:37:14;8.50;99.90
10911;DHT22;5508;49.150;11.030;2022-09-20T00:40:17;8.50;99.90
10911;DHT22;5508;49.150;11.030;2022-09-20T00:43:36;8.50;99.90
10911;DHT22;5508;49.150;11.030;2022-09-20T00:46:40;8.40;99.90
10911;DHT22;5508;49.150;11.030;2022-09-20T00:49:42;8.40;99.90
10911;DHT22;5508;49.150;11.030;2022-09-20T00:52:44;8.30;99.90
10911;DHT22;5508;49.150;11.030;2022-09-20T00:55:54;8.30;99.90
10911;DHT22;5508;49.150;11.030;2022-09-20T00:59:28;8.30;99.90
10911;DHT22;5508;49.150;11.030;2022-09-20T01:02:30;8.20;99.90
10911;DHT22;5508;49.150;11.030;2022-09-20T01:05:32;8.20;99.90
10911;DHT22;5508;49.150;11.030;2022-09-20T01:08:34;8.20;99.90
10911;DHT22;5508;49.150;11.030;2022-09-20T01:11:36;8.10;99.90
10911;DHT22;5508;49.150;11.030;2022-09-20T01:14:37;8.10;99.90
10911;DHT22;5508;49.150;11.030;2022-09-20T01:17:39;8.10;99.90
10911;DHT22;5508;49.150;11.030;2022-09-20T01:20:44;8.20;99.90
10911;DHT22;5508;49.150;11.030;2022-09-20T01:27:43;8.10;99.90
10911;DHT22;5508;49.150;11.030;2022-09-20T01:31:07;8.10;99.90
10911;DHT22;5508;49.150;11.030;2022-09-20T01:34:13;8.10;99.90
10911;DHT22;5508;49.150;11.030;2022-09-20T01:37:26;8.20;99.90
10911;DHT22;5508;49.150;11.030;2022-09-20T01:57:28;8.20;99.90
10911;DHT22;5508;49.150;11.030;2022-09-20T02:04:08;8.20;99.90
10911;DHT22;5508;49.150;11.030;2022-09-20T02:07:34;8.20;99.90
10911;DHT22;5508;49.150;11.030;2022-09-20T02:11:03;8.20;99.90
10911;DHT22;5508;49.150;11.030;2022-09-20T02:14:34;8.10;99.90
10911;DHT22;5508;49.150;11.030;2022-09-20T02:20:54;8.10;99.90
10911;DHT22;5508;49.150;11.030;2022-09-20T02:27:26;8.20;99.90
10911;DHT22;5508;49.150;11.030;2022-09-20T02:31:32;8.20;99.90
10911;DHT22;5508;49.150;11.030;2022-09-20T02:34:13;8.20;99.90
10911;DHT22;5508;49.150;11.030;2022-09-20T02:41:17;8.20;99.90
10911;DHT22;5508;49.150;11.030;2022-09-20T02:47:46;8.10;99.90
10911;DHT22;5508;49.150;11.030;2022-09-20T02:50:53;8.10;99.90
10911;DHT22;5508;49.150;11.030;2022-09-20T02:58:04;8.10;99.90
10911;DHT22;5508;49.150;11.030;2022-09-20T03:01:32;8.00;99.90
10911;DHT22;5508;49.150;11.030;2022-09-20T03:07:59;8.00;99.90
10911;DHT22;5508;49.150;11.030;2022-09-20T03:11:02;8.00;99.90
10911;DHT22;5508;49.150;11.030;2022-09-20T03:14:14;8.00;99.90
10911;DHT22;5508;49.150;11.030;2022-09-20T03:21:05;7.90;99.90
10911;DHT22;5508;49.150;11.030;2022-09-20T03:34:28;7.80;99.90
10911;DHT22;5508;49.150;11.030;2022-09-20T03:37:53;7.80;99.90
10911;DHT22;5508;49.150;11.030;2022-09-20T03:41:09;7.70;99.90
10911;DHT22;5508;49.150;11.030;2022-09-20T03:47:58;7.70;99.90
10911;DHT22;5508;49.150;11.030;2022-09-20T03:51:11;7.60;99.90
10911;DHT22;5508;49.150;11.030;2022-09-20T03:57:37;7.60;99.90
10911;DHT22;5508;49.150;11.030;2022-09-20T04:04:27;7.40;99.90
10911;DHT22;5508;49.150;11.030;2022-09-20T04:11:05;7.30;99.90
10911;DHT22;5508;49.150;11.030;2022-09-20T04:24:08;7.30;99.90
10911;DHT22;5508;49.150;11.030;2022-09-20T04:27:17;7.30;99.90
10911;DHT22;5508;49.150;11.030;2022-09-20T04:30:21;7.20;99.90
10911;DHT22;5508;49.150;11.030;2022-09-20T04:33:30;7.20;99.90
10911;DHT22;5508;49.150;11.030;2022-09-20T04:43:45;7.30;99.90
10911;DHT22;5508;49.150;11.030;2022-09-20T05:11:23;7.20;99.90
10911;DHT22;5508;49.150;11.030;2022-09-20T05:17:59;7.20;99.90
10911;DHT22;5508;49.150;11.030;2022-09-20T05:24:39;7.30;99.90
10911;DHT22;5508;49.150;11.030;2022-09-20T05:27:51;7.30;99.90
10911;DHT22;5508;49.150;11.030;2022-09-20T05:30:58;7.40;99.90
10911;DHT22;5508;49.150;11.030;2022-09-20T05:34:23;7.40;99.90
10911;DHT22;5508;49.150;11.030;2022-09-20T05:41:37;7.50;99.90
10911;DHT22;5508;49.150;11.030;2022-09-20T05:44:30;7.60;99.90
10911;DHT22;5508;49.150;11.030;2022-09-20T05:47:43;7.60;99.90
10911;DHT22;5508;49.150;11.030;2022-09-20T05:51:05;7.70;99.90
10911;DHT22;5508;49.150;11.030;2022-09-20T05:57:55;7.90;99.90
10911;DHT22;5508;49.150;11.030;2022-09-20T06:17:24;8.20;99.90
10911;DHT22;5508;49.150;11.030;2022-09-20T06:20:43;8.20;99.90
10911;DHT22;5508;49.150;11.030;2022-09-20T06:23:47;8.20;99.90
10911;DHT22;5508;49.150;11.030;2022-09-20T06:26:49;8.20;99.90
10911;DHT22;5508;49.150;11.030;2022-09-20T06:29:56;8.20;99.90
10911;DHT22;5508;49.150;11.030;2022-09-20T06:40:26;8.00;99.90
10911;DHT22;5508;49.150;11.030;2022-09-20T06:43:30;8.10;99.90
10911;DHT22;5508;49.150;11.030;2022-09-20T06:46:33;8.10;99.90
10911;DHT22;5508;49.150;11.030;2022-09-20T06:49:33;8.10;99.90
10911;DHT22;5508;49.150;11.030;2022-09-20T06:52:35;8.10;99.90
10911;DHT22;5508;49.150;11.030;2022-09-20T06:55:37;8.30;99.90
10911;DHT22;5508;49.150;11.030;2022-09-20T06:58:39;8.50;99.90
10911;DHT22;5508;49.150;11.030;2022-09-20T07:01:41;8.80;99.90
10911;DHT22;5508;49.150;11.030;2022-09-20T07:04:42;9.10;99.90
10911;DHT22;5508;49.150;11.030;2022-09-20T07:07:43;9.20;99.90
10911;DHT22;5508;49.150;11.030;2022-09-20T07:10:44;9.40;99.90
10911;DHT22;5508;49.150;11.030;2022-09-20T07:13:50;9.60;99.90
10911;DHT22;5508;49.150;11.030;2022-09-20T07:16:52;9.50;99.90
10911;DHT22;5508;49.150;11.030;2022-09-20T07:19:52;9.60;99.90
10911;DHT22;5508;49.150;11.030;2022-09-20T07:22:53;9.70;98.70
10911;DHT22;5508;49.150;11.030;2022-09-20T07:25:54;9.70;99.80
10911;DHT22;5508;49.150;11.030;2022-09-20T07:28:59;9.80;99.40
10911;DHT22;5508;49.150;11.030;2022-09-20T07:32:00;9.70;97.70
10911;DHT22;5508;49.150;11.030;2022-09-20T07:35:00;9.80;97.40
10911;DHT22;5508;49.150;11.030;2022-09-20T07:38:01;9.80;96.10
10911;DHT22;5508;49.150;11.030;2022-09-20T07:41:02;9.70;97.10
10911;DHT22;5508;49.150;11.030;2022-09-20T07:44:03;9.80;98.10
10911;DHT22;5508;49.150;11.030;2022-09-20T07:47:24;9.90;96.80
10911;DHT22;5508;49.150;11.030;2022-09-20T07:50:26;9.80;94.80
10911;DHT22;5508;49.150;11.030;2022-09-20T07:53:26;10.00;96.00
10911;DHT22;5508;49.150;11.030;2022-09-20T07:56:27;10.10;96.90
10911;DHT22;5508;49.150;11.030;2022-09-20T07:59:27;10.40;92.30
10911;DHT22;5508;49.150;11.030;2022-09-20T08:02:28;10.40;92.00
10911;DHT22;5508;49.150;11.030;2022-09-20T08:05:28;10.40;90.70
10911;DHT22;5508;49.150;11.030;2022-09-20T08:08:34;10.60;91.20
10911;DHT22;5508;49.150;11.030;2022-09-20T08:11:35;10.70;90.00
10911;DHT22;5508;49.150;11.030;2022-09-20T08:14:37;10.70;90.00
10911;DHT22;5508;49.150;11.030;2022-09-20T08:17:38;10.90;90.70
10911;DHT22;5508;49.150;11.030;2022-09-20T08:20:39;11.10;88.10
10911;DHT22;5508;49.150;11.030;2022-09-20T08:23:42;11.20;88.00
10911;DHT22;5508;49.150;11.030;2022-09-20T08:26:43;11.20;87.50
10911;DHT22;5508;49.150;11.030;2022-09-20T08:29:43;11.40;88.80
10911;DHT22;5508;49.150;11.030;2022-09-20T08:32:44;11.40;87.40
10911;DHT22;5508;49.150;11.030;2022-09-20T08:35:48;11.10;88.00
10911;DHT22;5508;49.150;11.030;2022-09-20T08:38:49;10.90;86.50
10911;DHT22;5508;49.150;11.030;2022-09-20T08:41:54;11.20;87.10
10911;DHT22;5508;49.150;11.030;2022-09-20T08:44:59;11.40;86.20
10911;DHT22;5508;49.150;11.030;2022-09-20T08:48:03;11.40;84.20
10911;DHT22;5508;49.150;11.030;2022-09-20T08:51:05;11.40;86.10
10911;DHT22;5508;49.150;11.030;2022-09-20T08:54:12;11.30;84.30
10911;DHT22;5508;49.150;11.030;2022-09-20T08:57:17;11.40;85.90
10911;DHT22;5508;49.150;11.030;2022-09-20T09:00:25;11.30;83.60
10911;DHT22;5508;49.150;11.030;2022-09-20T09:03:28;11.60;84.20
10911;DHT22;5508;49.150;11.030;2022-09-20T09:06:29;11.80;81.50
10911;DHT22;5508;49.150;11.030;2022-09-20T09:09:31;11.70;83.60
10911;DHT22;5508;49.150;11.030;2022-09-20T09:12:35;11.40;81.30
10911;DHT22;5508;49.150;11.030;2022-09-20T09:15:36;11.10;81.10
10911;DHT22;5508;49.150;11.030;2022-09-20T09:18:42;11.30;84.70
10911;DHT22;5508;49.150;11.030;2022-09-20T09:21:43;11.40;84.30
10911;DHT22;5508;49.150;11.030;2022-09-20T09:24:44;11.50;83.40
10911;DHT22;5508;49.150;11.030;2022-09-20T09:28:02;11.80;85.30
10911;DHT22;5508;49.150;11.030;2022-09-20T09:31:31;12.20;81.20
10911;DHT22;5508;49.150;11.030;2022-09-20T09:34:33;12.80;79.00
10911;DHT22;5508;49.150;11.030;2022-09-20T09:37:34;12.80;74.20
10911;DHT22;5508;49.150;11.030;2022-09-20T09:40:35;12.50;78.40
10911;DHT22;5508;49.150;11.030;2022-09-20T09:43:37;12.10;77.40
10911;DHT22;5508;49.150;11.030;2022-09-20T09:46:39;12.00;78.80
10911;DHT22;5508;49.150;11.030;2022-09-20T09:49:58;11.70;78.70
10911;DHT22;5508;49.150;11.030;2022-09-20T09:53:08;11.70;80.90
10911;DHT22;5508;49.150;11.030;2022-09-20T09:56:16;11.60;81.40
10911;DHT22;5508;49.150;11.030;2022-09-20T10:07:22;12.80;73.60
10911;DHT22;5508;49.150;11.030;2022-09-20T10:20:23;13.10;72.60
10911;DHT22;5508;49.150;11.030;2022-09-20T10:30:09;12.90;74.00
10911;DHT22;5508;49.150;11.030;2022-09-20T10:33:34;13.00;70.30
10911;DHT22;5508;49.150;11.030;2022-09-20T10:36:50;13.10;70.90
10911;DHT22;5508;49.150;11.030;2022-09-20T10:43:33;12.90;71.30
10911;DHT22;5508;49.150;11.030;2022-09-20T10:47:03;12.50;69.60
10911;DHT22;5508;49.150;11.030;2022-09-20T10:56:43;12.00;76.00
10911;DHT22;5508;49.150;11.030;2022-09-20T11:03:33;12.60;77.90
10911;DHT22;5508;49.150;11.030;2022-09-20T11:07:00;12.90;69.80
10911;DHT22;5508;49.150;11.030;2022-09-20T11:10:17;13.50;65.70
10911;DHT22;5508;49.150;11.030;2022-09-20T11:13:44;13.50;65.40
10911;DHT22;5508;49.150;11.030;2022-09-20T11:16:53;13.20;69.40
10911;DHT22;5508;49.150;11.030;2022-09-20T11:20:18;13.00;71.00
10911;DHT22;5508;49.150;11.030;2022-09-20T11:23:46;13.00;73.00
10911;DHT22;5508;49.150;11.030;2022-09-20T11:26:56;13.00;71.90
10911;DHT22;5508;49.150;11.030;2022-09-20T11:30:03;12.60;69.40
10911;DHT22;5508;49.150;11.030;2022-09-20T11:33:15;12.00;77.70
10911;DHT22;5508;49.150;11.030;2022-09-20T11:36:33;11.60;82.60
10911;DHT22;5508;49.150;11.030;2022-09-20T11:39:42;11.20;85.20
10911;DHT22;5508;49.150;11.030;2022-09-20T11:42:45;11.10;89.40
10911;DHT22;5508;49.150;11.030;2022-09-20T11:45:50;11.20;89.70
10911;DHT22;5508;49.150;11.030;2022-09-20T11:49:05;11.40;89.80
10911;DHT22;5508;49.150;11.030;2022-09-20T11:52:44;11.50;84.40
10911;DHT22;5508;49.150;11.030;2022-09-20T11:56:06;11.60;89.60
10911;DHT22;5508;49.150;11.030;2022-09-20T11:59:27;11.60;85.60
10911;DHT22;5508;49.150;11.030;2022-09-20T12:02:39;11.60;87.60
10911;DHT22;5508;49.150;11.030;2022-09-20T12:05:41;11.40;89.20
10911;DHT22;5508;49.150;11.030;2022-09-20T12:08:48;11.20;91.50
10911;DHT22;5508;49.150;11.030;2022-09-20T12:11:49;11.10;97.80
10911;DHT22;5508;49.150;11.030;2022-09-20T12:14:56;10.90;91.90
10911;DHT22;5508;49.150;11.030;2022-09-20T12:21:15;10.80;94.40
10911;DHT22;5508;49.150;11.030;2022-09-20T12:24:19;10.90;95.30
10911;DHT22;5508;49.150;11.030;2022-09-20T12:30:26;11.20;95.10
10911;DHT22;5508;49.150;11.030;2022-09-20T12:40:14;11.80;86.00
10911;DHT22;5508;49.150;11.030;2022-09-20T12:43:17;11.70;89.20
10911;DHT22;5508;49.150;11.030;2022-09-20T12:46:36;11.80;88.60
10911;DHT22;5508;49.150;11.030;2022-09-20T12:53:11;12.70;79.10
10911;DHT22;5508;49.150;11.030;2022-09-20T12:56:16;13.10;76.50
10911;DHT22;5508;49.150;11.030;2022-09-20T12:59:24;13.10;74.00
10911;DHT22;5508;49.150;11.030;2022-09-20T13:09:10;13.50;72.80
10911;DHT22;5508;49.150;11.030;2022-09-20T13:12:13;13.30;73.10
10911;DHT22;5508;49.150;11.030;2022-09-20T13:15:17;13.30;75.60
10911;DHT22;5508;49.150;11.030;2022-09-20T13:18:19;12.90;73.30
10911;DHT22;5508;49.150;11.030;2022-09-20T13:21:21;12.30;75.90
10911;DHT22;5508;49.150;11.030;2022-09-20T13:24:24;11.70;81.30
10911;DHT22;5508;49.150;11.030;2022-09-20T13:27:33;11.50;81.20
10911;DHT22;5508;49.150;11.030;2022-09-20T13:30:34;11.20;81.40
10911;DHT22;5508;49.150;11.030;2022-09-20T13:33:35;10.90;91.70
10911;DHT22;5508;49.150;11.030;2022-09-20T13:36:36;10.50;95.30
10911;DHT22;5508;49.150;11.030;2022-09-20T13:39:38;10.30;97.50
10911;DHT22;5508;49.150;11.030;2022-09-20T13:42:38;10.40;97.60
10911;DHT22;5508;49.150;11.030;2022-09-20T13:45:41;10.30;99.20
10911;DHT22;5508;49.150;11.030;2022-09-20T13:48:46;10.40;99.90
10911;DHT22;5508;49.150;11.030;2022-09-20T13:51:47;10.50;99.90
10911;DHT22;5508;49.150;11.030;2022-09-20T13:54:48;10.40;99.90
10911;DHT22;5508;49.150;11.030;2022-09-20T13:57:50;10.40;99.90
10911;DHT22;5508;49.150;11.030;2022-09-20T14:00:57;10.40;99.90
10911;DHT22;5508;49.150;11.030;2022-09-20T14:04:14;10.40;99.90
10911;DHT22;5508;49.150;11.030;2022-09-20T14:07:16;10.40;99.90
10911;DHT22;5508;49.150;11.030;2022-09-20T14:13:41;11.00;99.90
10911;DHT22;5508;49.150;11.030;2022-09-20T14:16:44;11.10;99.10
10911;DHT22;5508;49.150;11.030;2022-09-20T14:19:51;11.20;98.20
10911;DHT22;5508;49.150;11.030;2022-09-20T14:22:53;11.40;97.60
10911;DHT22;5508;49.150;11.030;2022-09-20T14:26:27;11.60;98.00
10911;DHT22;5508;49.150;11.030;2022-09-20T14:29:40;11.60;90.70
10911;DHT22;5508;49.150;11.030;2022-09-20T14:32:49;11.70;93.00
10911;DHT22;5508;49.150;11.030;2022-09-20T14:35:51;11.80;93.00
10911;DHT22;5508;49.150;11.030;2022-09-20T14:38:55;11.80;94.10
10911;DHT22;5508;49.150;11.030;2022-09-20T14:41:56;12.00;95.40
10911;DHT22;5508;49.150;11.030;2022-09-20T14:44:57;12.10;90.40
10911;DHT22;5508;49.150;11.030;2022-09-20T14:54:28;12.30;82.00
10911;DHT22;5508;49.150;11.030;2022-09-20T14:57:29;12.50;83.30
10911;DHT22;5508;49.150;11.030;2022-09-20T15:00:45;12.60;84.00
10911;DHT22;5508;49.150;11.030;2022-09-20T15:03:46;12.50;83.80
10911;DHT22;5508;49.150;11.030;2022-09-20T15:06:49;12.20;82.60
10911;DHT22;5508;49.150;11.030;2022-09-20T15:09:50;11.90;85.20
10911;DHT22;5508;49.150;11.030;2022-09-20T15:12:50;11.80;85.90
10911;DHT22;5508;49.150;11.030;2022-09-20T15:15:52;11.60;82.90
10911;DHT22;5508;49.150;11.030;2022-09-20T15:18:53;11.60;84.20
10911;DHT22;5508;49.150;11.030;2022-09-20T15:21:54;11.60;86.80
10911;DHT22;5508;49.150;11.030;2022-09-20T15:24:54;11.60;84.10
10911;DHT22;5508;49.150;11.030;2022-09-20T15:27:55;11.60;84.00
10911;DHT22;5508;49.150;11.030;2022-09-20T15:30:57;11.60;87.80
10911;DHT22;5508;49.150;11.030;2022-09-20T15:33:58;11.70;88.20
10911;DHT22;5508;49.150;11.030;2022-09-20T15:36:58;11.70;84.70
10911;DHT22;5508;49.150;11.030;2022-09-20T15:39:59;11.70;83.70
10911;DHT22;5508;49.150;11.030;2022-09-20T15:42:59;11.60;86.50
10911;DHT22;5508;49.150;11.030;2022-09-20T15:46:17;11.50;84.50
10911;DHT22;5508;49.150;11.030;2022-09-20T15:49:19;11.30;87.80
10911;DHT22;5508;49.150;11.030;2022-09-20T15:52:21;11.20;90.10
10911;DHT22;5508;49.150;11.030;2022-09-20T15:55:24;11.10;92.60
10911;DHT22;5508;49.150;11.030;2022-09-20T15:58:25;11.00;92.00
10911;DHT22;5508;49.150;11.030;2022-09-20T16:01:30;10.90;92.20
10911;DHT22;5508;49.150;11.030;2022-09-20T16:04:32;10.90;92.60
10911;DHT22;5508;49.150;11.030;2022-09-20T16:07:34;11.00;91.90
10911;DHT22;5508;49.150;11.030;2022-09-20T16:10:35;11.00;90.50
10911;DHT22;5508;49.150;11.030;2022-09-20T16:13:38;11.00;90.40
10911;DHT22;5508;49.150;11.030;2022-09-20T16:16:38;10.90;91.40
10911;DHT22;5508;49.150;11.030;2022-09-20T16:19:39;10.80;87.40
10911;DHT22;5508;49.150;11.030;2022-09-20T16:22:41;10.80;86.10
10911;DHT22;5508;49.150;11.030;2022-09-20T16:25:41;10.60;88.20
10911;DHT22;5508;49.150;11.030;2022-09-20T16:28:42;10.50;90.00
10911;DHT22;5508;49.150;11.030;2022-09-20T16:31:45;10.40;86.30
10911;DHT22;5508;49.150;11.030;2022-09-20T16:34:46;10.20;87.10
10911;DHT22;5508;49.150;11.030;2022-09-20T16:37:49;10.10;89.90
10911;DHT22;5508;49.150;11.030;2022-09-20T16:40:50;10.10;92.20
10911;DHT22;5508;49.150;11.030;2022-09-20T16:43:51;10.00;92.50
10911;DHT22;5508;49.150;11.030;2022-09-20T16:46:52;10.00;93.20
10911;DHT22;5508;49.150;11.030;2022-09-20T16:49:53;10.10;93.60
10911;DHT22;5508;49.150;11.030;2022-09-20T16:52:54;10.10;92.60
10911;DHT22;5508;49.150;11.030;2022-09-20T16:55:55;10.10;93.80
10911;DHT22;5508;49.150;11.030;2022-09-20T16:58:55;10.00;95.40
10911;DHT22;5508;49.150;11.030;2022-09-20T17:01:56;10.10;94.70
10911;DHT22;5508;49.150;11.030;2022-09-20T17:04:56;10.00;95.10
10911;DHT22;5508;49.150;11.030;2022-09-20T17:07:57;10.00;93.20
10911;DHT22;5508;49.150;11.030;2022-09-20T17:11:00;10.00;89.70
10911;DHT22;5508;49.150;11.030;2022-09-20T17:14:02;10.00;88.90
10911;DHT22;5508;49.150;11.030;2022-09-20T17:17:03;10.00;86.30
10911;DHT22;5508;49.150;11.030;2022-09-20T17:20:05;9.90;87.10
10911;DHT22;5508;49.150;11.030;2022-09-20T17:23:07;9.90;90.00
10911;DHT22;5508;49.150;11.030;2022-09-20T17:26:19;9.80;87.30
10911;DHT22;5508;49.150;11.030;2022-09-20T17:29:22;9.70;88.00
10911;DHT22;5508;49.150;11.030;2022-09-20T17:32:22;9.60;91.60
10911;DHT22;5508;49.150;11.030;2022-09-20T17:35:23;9.60;92.00
10911;DHT22;5508;49.150;11.030;2022-09-20T17:38:24;9.60;94.90
10911;DHT22;5508;49.150;11.030;2022-09-20T17:41:25;9.50;94.60
10911;DHT22;5508;49.150;11.030;2022-09-20T17:44:26;9.40;96.70
10911;DHT22;5508;49.150;11.030;2022-09-20T17:47:27;9.40;99.40
10911;DHT22;5508;49.150;11.030;2022-09-20T17:50:27;9.20;98.40
10911;DHT22;5508;49.150;11.030;2022-09-20T17:53:31;9.10;99.50
10911;DHT22;5508;49.150;11.030;2022-09-20T17:56:33;8.90;99.90
10911;DHT22;5508;49.150;11.030;2022-09-20T17:59:34;8.70;99.90
10911;DHT22;5508;49.150;11.030;2022-09-20T18:02:35;8.50;99.90
10911;DHT22;5508;49.150;11.030;2022-09-20T18:05:36;8.40;99.90
10911;DHT22;5508;49.150;11.030;2022-09-20T18:08:37;8.30;99.90
10911;DHT22;5508;49.150;11.030;2022-09-20T18:11:39;8.20;99.90
10911;DHT22;5508;49.150;11.030;2022-09-20T18:14:40;8.10;99.90
10911;DHT22;5508;49.150;11.030;2022-09-20T18:17:41;8.20;99.90
10911;DHT22;5508;49.150;11.030;2022-09-20T18:20:41;8.20;99.90
10911;DHT22;5508;49.150;11.030;2022-09-20T18:23:42;8.00;99.90
10911;DHT22;5508;49.150;11.030;2022-09-20T18:26:44;7.90;99.90
10911;DHT22;5508;49.150;11.030;2022-09-20T18:29:44;7.80;99.90
10911;DHT22;5508;49.150;11.030;2022-09-20T18:32:49;7.80;99.90
10911;DHT22;5508;49.150;11.030;2022-09-20T18:35:49;7.70;99.90
10911;DHT22;5508;49.150;11.030;2022-09-20T18:38:50;7.60;99.90
10911;DHT22;5508;49.150;11.030;2022-09-20T18:41:55;7.50;99.90
10911;DHT22;5508;49.150;11.030;2022-09-20T18:44:55;7.40;99.90
10911;DHT22;5508;49.150;11.030;2022-09-20T18:47:56;7.30;99.90
10911;DHT22;5508;49.150;11.030;2022-09-20T18:50:58;7.20;99.90
10911;DHT22;5508;49.150;11.030;2022-09-20T18:53:59;7.10;99.90
10911;DHT22;5508;49.150;11.030;2022-09-20T18:57:00;7.00;99.90
10911;DHT22;5508;49.150;11.030;2022-09-20T19:00:01;7.10;99.90
10911;DHT22;5508;49.150;11.030;2022-09-20T19:03:10;7.00;99.90
10911;DHT22;5508;49.150;11.030;2022-09-20T19:06:17;6.80;99.90
10911;DHT22;5508;49.150;11.030;2022-09-20T19:09:41;6.80;99.90
10911;DHT22;5508;49.150;11.030;2022-09-20T19:16:26;6.60;99.90
10911;DHT22;5508;49.150;11.030;2022-09-20T19:19:43;6.50;99.90
10911;DHT22;5508;49.150;11.030;2022-09-20T19:26:22;6.30;99.90
10911;DHT22;5508;49.150;11.030;2022-09-20T19:29:25;6.10;99.90
10911;DHT22;5508;49.150;11.030;2022-09-20T19:32:26;6.10;99.90
10911;DHT22;5508;49.150;11.030;2022-09-20T19:35:33;6.10;99.90
10911;DHT22;5508;49.150;11.030;2022-09-20T19:38:36;6.10;99.90
10911;DHT22;5508;49.150;11.030;2022-09-20T19:51:25;5.90;99.90
10911;DHT22;5508;49.150;11.030;2022-09-20T19:54:26;5.90;99.90
10911;DHT22;5508;49.150;11.030;2022-09-20T19:57:37;5.80;99.90
10911;DHT22;5508;49.150;11.030;2022-09-20T20:00:43;5.80;99.90
10911;DHT22;5508;49.150;11.030;2022-09-20T20:03:44;5.80;99.90
10911;DHT22;5508;49.150;11.030;2022-09-20T20:06:57;5.80;99.90
10911;DHT22;5508;49.150;11.030;2022-09-20T20:16:57;5.60;99.90
10911;DHT22;5508;49.150;11.030;2022-09-20T20:26:23;5.50;99.90
10911;DHT22;5508;49.150;11.030;2022-09-20T20:29:24;5.30;99.90
10911;DHT22;5508;49.150;11.030;2022-09-20T20:32:25;5.30;99.90
10911;DHT22;5508;49.150;11.030;2022-09-20T20:35:25;5.30;99.90
10911;DHT22;5508;49.150;11.030;2022-09-20T20:38:26;5.30;99.90
10911;DHT22;5508;49.150;11.030;2022-09-20T20:41:27;5.30;99.90
10911;DHT22;5508;49.150;11.030;2022-09-20T20:44:33;5.20;99.90
10911;DHT22;5508;49.150;11.030;2022-09-20T20:47:37;5.20;99.90
10911;DHT22;5508;49.150;11.030;2022-09-20T20:50:39;5.20;99.90
10911;DHT22;5508;49.150;11.030;2022-09-20T20:53:46;5.20;99.90
10911;DHT22;5508;49.150;11.030;2022-09-20T20:56:47;5.20;99.90
10911;DHT22;5508;49.150;11.030;2022-09-20T20:59:47;5.20;99.90
10911;DHT22;5508;49.150;11.030;2022-09-20T21:02:57;5.20;99.90
10911;DHT22;5508;49.150;11.030;2022-09-20T21:05:57;5.30;99.90
10911;DHT22;5508;49.150;11.030;2022-09-20T21:08:58;5.30;99.90
10911;DHT22;5508;49.150;11.030;2022-09-20T21:11:59;5.20;99.90
10911;DHT22;5508;49.150;11.030;2022-09-20T21:15:00;5.20;99.90
10911;DHT22;5508;49.150;11.030;2022-09-20T21:18:00;5.20;99.90
10911;DHT22;5508;49.150;11.030;2022-09-20T21:21:02;5.20;99.90
10911;DHT22;5508;49.150;11.030;2022-09-20T21:24:07;5.30;99.90
10911;DHT22;5508;49.150;11.030;2022-09-20T21:27:08;5.40;99.90
10911;DHT22;5508;49.150;11.030;2022-09-20T21:30:09;5.40;99.90
10911;DHT22;5508;49.150;11.030;2022-09-20T21:33:09;5.50;99.90
10911;DHT22;5508;49.150;11.030;2022-09-20T21:36:12;5.60;99.90
10911;DHT22;5508;49.150;11.030;2022-09-20T21:39:13;5.60;99.90
10911;DHT22;5508;49.150;11.030;2022-09-20T21:42:14;5.60;99.90
10911;DHT22;5508;49.150;11.030;2022-09-20T21:45:16;5.70;99.90
10911;DHT22;5508;49.150;11.030;2022-09-20T21:48:20;5.70;99.90
10911;DHT22;5508;49.150;11.030;2022-09-20T21:51:21;5.70;99.90
10911;DHT22;5508;49.150;11.030;2022-09-20T21:54:21;5.80;99.90
10911;DHT22;5508;49.150;11.030;2022-09-20T21:57:23;5.90;99.90
10911;DHT22;5508;49.150;11.030;2022-09-20T22:00:23;5.80;99.90
10911;DHT22;5508;49.150;11.030;2022-09-20T22:03:39;5.80;99.90
10911;DHT22;5508;49.150;11.030;2022-09-20T22:06:42;5.70;99.90
10911;DHT22;5508;49.150;11.030;2022-09-20T22:09:42;5.70;99.90
10911;DHT22;5508;49.150;11.030;2022-09-20T22:12:43;5.70;99.90
10911;DHT22;5508;49.150;11.030;2022-09-20T22:15:43;5.70;99.90
10911;DHT22;5508;49.150;11.030;2022-09-20T22:18:45;5.70;99.90
10911;DHT22;5508;49.150;11.030;2022-09-20T22:21:48;5.60;99.90
10911;DHT22;5508;49.150;11.030;2022-09-20T22:24:49;5.60;99.90
10911;DHT22;5508;49.150;11.030;2022-09-20T22:27:49;5.60;99.90
10911;DHT22;5508;49.150;11.030;2022-09-20T22:30:50;5.60;99.90
10911;DHT22;5508;49.150;11.030;2022-09-20T22:33:54;5.50;99.90
10911;DHT22;5508;49.150;11.030;2022-09-20T22:36:55;5.60;99.90
10911;DHT22;5508;49.150;11.030;2022-09-20T22:39:55;5.60;99.90
10911;DHT22;5508;49.150;11.030;2022-09-20T22:42:56;5.60;99.90
10911;DHT22;5508;49.150;11.030;2022-09-20T22:46:06;5.50;99.90
10911;DHT22;5508;49.150;11.030;2022-09-20T22:49:07;5.50;99.90
10911;DHT22;5508;49.150;11.030;2022-09-20T22:52:08;5.50;99.90
10911;DHT22;5508;49.150;11.030;2022-09-20T22:55:09;5.40;99.90
10911;DHT22;5508;49.150;11.030;2022-09-20T22:58:09;5.40;99.90
10911;DHT22;5508;49.150;11.030;2022-09-20T23:01:14;5.30;99.90
10911;DHT22;5508;49.150;11.030;2022-09-20T23:04:19;5.20;99.90
10911;DHT22;5508;49.150;11.030;2022-09-20T23:07:19;5.10;99.90
10911;DHT22;5508;49.150;11.030;2022-09-20T23:10:20;5.20;99.90
10911;DHT22;5508;49.150;11.030;2022-09-20T23:13:20;5.20;99.90
10911;DHT22;5508;49.150;11.030;2022-09-20T23:16:23;5.00;99.90
10911;DHT22;5508;49.150;11.030;2022-09-20T23:19:24;4.90;99.90
10911;DHT22;5508;49.150;11.030;2022-09-20T23:22:25;4.90;99.90
10911;DHT22;5508;49.150;11.030;2022-09-20T23:25:25;4.70;99.90
10911;DHT22;5508;49.150;11.030;2022-09-20T23:28:26;4.70;99.90
10911;DHT22;5508;49.150;11.030;2022-09-20T23:31:28;4.60;99.90
10911;DHT22;5508;49.150;11.030;2022-09-20T23:34:28;4.60;99.90
10911;DHT22;5508;49.150;11.030;2022-09-20T23:37:29;4.60;99.90
10911;DHT22;5508;49.150;11.030;2022-09-20T23:40:29;4.50;99.90
10911;DHT22;5508;49.150;11.030;2022-09-20T23:43:31;4.50;99.90
10911;DHT22;5508;49.150;11.030;2022-09-20T23:46:32;4.40;99.90
10911;DHT22;5508;49.150;11.030;2022-09-20T23:49:33;4.40;99.90
10911;DHT22;5508;49.150;11.030;2022-09-20T23:52:34;4.40;99.90
10911;DHT22;5508;49.150;11.030;2022-09-20T23:55:34;4.30;99.90